Time;durP1;ratioP1;P1;durP2;ratioP2;P2;SDS_P1;SDS_P2;PMS_P1;PMS_P2;Temp;Humidity;BMP_temperature;BMP_pressure;BME280_temperature;BME280_humidity;BME280_pressure;Samples;Min_cycle;Max_cycle;Signal;HPM_P1;HPM_P2
2023/02/12 00:01:12;;;;;;;45.97;17.30;;;;;;;3.80;100.00;98150.56;5057407;28;20309;-68
2023/02/12 00:03:40;;;;;;;43.67;17.17;;;;;;;3.74;100.00;98162.22;5056754;28;20208;-68
2023/02/12 00:06:07;;;;;;;44.93;15.57;;;;;;;3.68;100.00;98156.53;5056638;28;20200;-68
2023/02/12 00:08:34;;;;;;;38.00;15.90;;;;;;;3.70;100.00;98158.09;5057463;28;20216;-68
2023/02/12 00:11:06;;;;;;;40.07;15.00;;;;;;;3.74;100.00;98167.44;5057025;28;20220;-68
2023/02/12 00:13:32;;;;;;;38.53;15.43;;;;;;;3.74;100.00;98162.22;5057173;28;20197;-68
2023/02/12 00:15:59;;;;;;;37.03;16.60;;;;;;;3.74;100.00;98158.75;5057209;28;20212;-68
2023/02/12 00:18:27;;;;;;;46.20;16.47;;;;;;;3.80;100.00;98161.00;5056822;28;21057;-68
2023/02/12 00:20:53;;;;;;;38.63;15.90;;;;;;;3.71;100.00;98167.59;5056615;28;20716;-67
2023/02/12 00:23:19;;;;;;;37.80;15.27;;;;;;;3.68;100.00;98161.72;5058028;28;20203;-68
2023/02/12 00:25:46;;;;;;;34.23;14.43;;;;;;;3.71;100.00;98171.97;5055580;28;20211;-68
2023/02/12 00:28:12;;;;;;;37.87;14.33;;;;;;;3.57;100.00;98169.31;5056876;28;20200;-67
2023/02/12 00:30:39;;;;;;;33.60;13.50;;;;;;;3.62;100.00;98170.72;5056821;28;20211;-68
2023/02/12 00:33:05;;;;;;;29.30;13.23;;;;;;;3.67;100.00;98167.88;5057025;28;20201;-67
2023/02/12 00:35:33;;;;;;;47.23;16.00;;;;;;;3.67;100.00;98165.25;5056264;28;20204;-67
2023/02/12 00:37:59;;;;;;;34.33;14.40;;;;;;;3.60;100.00;98165.69;5056882;28;20224;-68
2023/02/12 00:40:26;;;;;;;37.93;14.77;;;;;;;3.58;100.00;98164.94;5056744;28;20208;-68
2023/02/12 00:42:52;;;;;;;36.47;14.10;;;;;;;3.58;100.00;98172.75;5056627;28;20215;-68
2023/02/12 00:45:19;;;;;;;35.87;15.13;;;;;;;3.59;100.00;98171.84;5055914;28;20208;-68
2023/02/12 00:47:45;;;;;;;37.97;14.67;;;;;;;3.60;100.00;98170.91;5056523;28;20204;-68
2023/02/12 00:50:12;;;;;;;39.97;14.53;;;;;;;3.60;100.00;98173.50;5056763;28;20200;-67
2023/02/12 00:52:39;;;;;;;34.20;14.50;;;;;;;3.67;100.00;98173.91;5056508;28;20230;-67
2023/02/12 00:55:06;;;;;;;34.93;13.17;;;;;;;3.59;100.00;98174.44;5056169;28;20207;-68
2023/02/12 00:57:33;;;;;;;39.67;14.40;;;;;;;3.58;100.00;98180.56;5056298;28;20223;-67
2023/02/12 00:59:59;;;;;;;33.10;14.27;;;;;;;3.56;100.00;98177.22;5055953;28;20234;-67
2023/02/12 01:02:26;;;;;;;33.67;13.67;;;;;;;3.54;100.00;98172.09;5058823;28;20244;-68
2023/02/12 01:04:52;;;;;;;35.83;13.80;;;;;;;3.51;100.00;98174.88;5056271;28;20218;-68
2023/02/12 01:07:19;;;;;;;33.67;13.30;;;;;;;3.52;100.00;98176.56;5056155;28;20223;-67
2023/02/12 01:09:47;;;;;;;31.77;13.67;;;;;;;3.54;100.00;98168.66;5056651;28;20212;-68
2023/02/12 01:12:13;;;;;;;32.20;13.67;;;;;;;3.51;100.00;98174.88;5056574;28;20223;-67
2023/02/12 01:14:40;;;;;;;34.00;14.47;;;;;;;3.54;100.00;98174.72;5055304;28;20224;-68
2023/02/12 01:17:07;;;;;;;39.40;14.07;;;;;;;3.57;100.00;98177.13;5056335;28;20708;-67
2023/02/12 01:19:34;;;;;;;40.13;14.53;;;;;;;3.49;100.00;98170.66;5056818;28;20656;-67
2023/02/12 01:22:00;;;;;;;31.57;13.77;;;;;;;3.51;100.00;98174.03;5055765;28;21024;-67
2023/02/12 01:24:27;;;;;;;35.30;13.53;;;;;;;3.51;100.00;98174.03;5055714;28;20211;-67
2023/02/12 01:26:54;;;;;;;37.60;13.20;;;;;;;3.59;100.00;98171.84;5056698;28;20210;-68
2023/02/12 01:29:21;;;;;;;30.57;13.13;;;;;;;3.53;100.00;98177.41;5056078;28;20193;-68
2023/02/12 01:31:47;;;;;;;37.90;14.57;;;;;;;3.53;100.00;98173.03;5055651;28;20235;-67
2023/02/12 01:34:14;;;;;;;38.33;14.27;;;;;;;3.51;100.00;98174.03;5056460;28;20215;-68
2023/02/12 01:36:40;;;;;;;36.80;14.90;;;;;;;3.53;100.00;98174.81;5058588;28;20204;-67
2023/02/12 01:39:07;;;;;;;40.53;14.17;;;;;;;3.55;100.00;98175.53;5059573;28;20604;-67
2023/02/12 01:41:35;;;;;;;32.63;13.60;;;;;;;3.60;100.00;98183.94;5059486;28;20227;-68
2023/02/12 01:44:12;;;;;;;36.47;14.07;;;;;;;3.67;100.00;98176.50;5059571;28;20205;-68
2023/02/12 01:46:40;;;;;;;37.20;14.07;;;;;;;3.60;100.00;98178.72;5058995;28;20207;-68
2023/02/12 01:49:10;;;;;;;34.67;14.80;;;;;;;3.58;100.00;98177.97;5059276;28;20212;-67
2023/02/12 01:51:37;;;;;;;37.80;14.33;;;;;;;3.50;100.00;98173.22;5059345;28;20235;-67
2023/02/12 01:54:07;;;;;;;41.23;14.57;;;;;;;3.54;100.00;98169.50;5058226;28;21063;-67
2023/02/12 01:56:34;;;;;;;42.50;15.30;;;;;;;3.49;100.00;98168.06;5059571;28;20211;-67
2023/02/12 01:59:01;;;;;;;37.23;14.80;;;;;;;3.49;100.00;98171.53;5058900;28;20247;-68
2023/02/12 02:01:30;;;;;;;36.93;14.87;;;;;;;3.55;100.00;98165.13;5058648;28;20251;-68
2023/02/12 02:04:00;;;;;;;36.77;14.17;;;;;;;3.57;100.00;98161.50;5058264;28;20204;-68
2023/02/12 02:06:31;;;;;;;31.23;13.90;;;;;;;3.58;100.00;98154.50;5058377;28;20197;-68
2023/02/12 02:08:58;;;;;;;33.90;14.07;;;;;;;3.49;100.00;98157.63;5058843;28;20692;-67
2023/02/12 02:17:04;;;;;;;38.00;15.00;;;;;;;3.56;100.00;98153.78;5058326;28;20311;-68
2023/02/12 02:19:50;;;;;;;35.37;14.17;;;;;;;3.55;100.00;98154.69;5058928;28;20200;-68
2023/02/12 02:22:26;;;;;;;36.80;14.60;;;;;;;3.52;100.00;98155.72;5058607;28;20231;-68
2023/02/12 02:25:43;;;;;;;35.83;15.80;;;;;;;3.57;100.00;98152.84;5058171;28;20214;-68
2023/02/12 02:28:26;;;;;;;32.17;13.20;;;;;;;3.52;100.00;98152.28;4976656;28;20210;-68
2023/02/12 02:30:59;;;;;;;38.87;14.30;;;;;;;3.52;100.00;98154.88;5058298;28;20228;-68
2023/02/12 02:33:40;;;;;;;40.07;14.90;;;;;;;3.50;100.00;98147.16;5058366;28;20204;-67
2023/02/12 02:36:18;;;;;;;36.23;14.07;;;;;;;3.54;100.00;98145.19;5058975;28;20295;-67
2023/02/12 02:38:50;;;;;;;45.20;15.13;;;;;;;3.51;100.00;98142.78;5058861;28;20231;-67
2023/02/12 02:41:21;;;;;;;30.83;13.80;;;;;;;3.47;100.00;98141.28;5058126;28;21059;-69
2023/02/12 02:43:50;;;;;;;34.70;13.90;;;;;;;3.44;100.00;98139.69;5057278;28;20207;-67
2023/02/12 02:46:22;;;;;;;37.70;14.10;;;;;;;3.47;100.00;98136.06;5059330;28;20203;-68
2023/02/12 02:48:53;;;;;;;38.70;14.67;;;;;;;3.46;100.00;98137.81;5057207;28;20207;-67
2023/02/12 02:51:23;;;;;;;37.20;14.60;;;;;;;3.46;100.00;98142.19;5057711;28;20231;-67
2023/02/12 02:53:56;;;;;;;34.10;14.43;;;;;;;3.45;100.00;98143.09;5057669;28;20575;-67
2023/02/12 02:56:25;;;;;;;35.63;15.07;;;;;;;3.45;100.00;98148.31;5058770;28;20210;-67
2023/02/12 02:58:56;;;;;;;43.60;14.00;;;;;;;3.46;100.00;98139.59;5058010;28;20234;-67
2023/02/12 03:01:29;;;;;;;41.23;14.80;;;;;;;3.49;100.00;98139.41;5058173;28;20700;-67
2023/02/12 03:04:02;;;;;;;40.20;14.90;;;;;;;3.44;100.00;98152.72;5057284;28;20372;-67
2023/02/12 03:06:34;;;;;;;36.27;14.47;;;;;;;3.40;100.00;98146.00;5056941;28;20211;-67
2023/02/12 03:09:05;;;;;;;36.50;14.20;;;;;;;3.42;100.00;98145.91;5057654;28;20211;-68
2023/02/12 03:11:34;;;;;;;36.37;15.33;;;;;;;3.38;100.00;98139.19;5057930;28;20224;-67
2023/02/12 03:14:07;;;;;;;36.27;15.57;;;;;;;3.44;100.00;98144.88;5056321;28;20667;-67
2023/02/12 03:16:39;;;;;;;42.53;16.67;;;;;;;3.47;100.00;98143.88;5057927;28;20204;-68
2023/02/12 03:19:10;;;;;;;47.03;17.33;;;;;;;3.49;100.00;98140.25;5057249;28;20613;-68
2023/02/12 03:21:43;;;;;;;50.43;17.53;;;;;;;3.51;100.00;98138.38;5057229;28;20236;-67
2023/02/12 03:24:16;;;;;;;50.07;19.57;;;;;;;3.49;100.00;98139.41;5054140;28;20211;-68
2023/02/12 03:26:47;;;;;;;42.47;17.03;;;;;;;3.51;100.00;98140.16;5057767;28;20207;-67
2023/02/12 03:29:13;;;;;;;45.47;17.03;;;;;;;3.46;100.00;98144.78;5057243;28;20210;-68
2023/02/12 03:31:55;;;;;;;46.83;16.70;;;;;;;3.60;100.00;98152.66;5057353;28;20392;-67
2023/02/12 03:34:29;;;;;;;42.87;17.73;;;;;;;3.59;100.00;98156.19;5057380;28;20203;-67
2023/02/12 03:37:01;;;;;;;40.00;16.33;;;;;;;3.62;100.00;98154.25;5057256;28;20211;-68
2023/02/12 03:39:35;;;;;;;43.60;17.60;;;;;;;3.59;100.00;98149.22;5056917;28;20223;-67
2023/02/12 03:42:06;;;;;;;47.70;18.00;;;;;;;3.61;100.00;98149.13;5057354;28;21350;-68
2023/02/12 03:44:46;;;;;;;52.67;19.03;;;;;;;3.62;100.00;98153.44;5056758;28;20204;-68
2023/02/12 03:47:21;;;;;;;49.63;20.20;;;;;;;3.63;100.00;98163.75;5056872;28;20208;-68
2023/02/12 03:49:55;;;;;;;46.17;18.60;;;;;;;3.64;100.00;98155.03;5057457;28;20211;-68
2023/02/12 03:52:22;;;;;;;58.17;20.40;;;;;;;3.54;100.00;98153.88;5056937;28;20730;-68
2023/02/12 03:54:48;;;;;;;50.03;17.90;;;;;;;3.54;100.00;98156.47;5056398;28;20704;-68
2023/02/12 03:57:19;;;;;;;47.17;18.83;;;;;;;3.63;100.00;98161.97;5056549;28;20208;-67
2023/02/12 03:59:46;;;;;;;47.43;18.90;;;;;;;3.59;100.00;98162.25;5056654;28;20731;-67
2023/02/12 04:02:15;;;;;;;60.13;19.97;;;;;;;3.62;100.00;98174.28;5056153;28;20723;-68
2023/02/12 04:04:42;;;;;;;49.10;19.20;;;;;;;3.59;100.00;98174.44;5055803;28;20215;-67
2023/02/12 04:07:09;;;;;;;46.70;18.63;;;;;;;3.50;100.00;98177.56;5056644;28;20215;-68
2023/02/12 04:09:35;;;;;;;41.40;16.83;;;;;;;3.51;100.00;98176.66;5056659;28;20211;-68
2023/02/12 04:12:15;;;;;;;47.40;17.07;;;;;;;3.56;100.00;98178.06;5055952;28;21031;-68
2023/02/12 04:14:49;;;;;;;40.70;15.83;;;;;;;3.50;100.00;98183.66;5055533;28;20588;-67
2023/02/12 04:17:29;;;;;;;41.17;15.27;;;;;;;3.53;100.00;98180.84;5056044;28;20198;-67
2023/02/12 04:20:05;;;;;;;39.23;14.67;;;;;;;3.55;100.00;98181.59;5056102;28;20855;-68
2023/02/12 04:22:45;;;;;;;41.47;16.17;;;;;;;3.55;100.00;98181.59;5056489;28;20226;-67
2023/02/12 04:25:20;;;;;;;49.00;16.70;;;;;;;3.55;100.00;98191.19;5055499;28;20214;-68
2023/02/12 04:27:54;;;;;;;43.10;16.10;;;;;;;3.52;100.00;98188.75;5056347;28;20215;-67
2023/02/12 04:30:27;;;;;;;38.90;15.93;;;;;;;3.52;100.00;98191.38;5056582;28;20204;-68
2023/02/12 04:32:59;;;;;;;35.90;15.03;;;;;;;3.54;100.00;98186.88;5056043;28;20499;-68
2023/02/12 04:35:32;;;;;;;37.07;15.37;;;;;;;3.51;100.00;98193.13;5055653;28;20215;-68
2023/02/12 04:38:05;;;;;;;38.67;15.10;;;;;;;3.50;100.00;98194.06;5056301;28;20475;-68
2023/02/12 04:40:32;;;;;;;40.37;15.70;;;;;;;3.43;100.00;98197.09;5056226;28;20275;-68
2023/02/12 04:42:58;;;;;;;43.30;15.67;;;;;;;3.42;100.00;98195.41;5055938;28;20203;-65
2023/02/12 04:45:28;;;;;;;51.53;16.10;;;;;;;3.49;100.00;98197.59;5055373;28;20204;-67
2023/02/12 04:47:56;;;;;;;43.23;15.90;;;;;;;3.47;100.00;98193.38;5055991;28;20215;-67
2023/02/12 04:50:26;;;;;;;42.27;16.10;;;;;;;3.49;100.00;98202.81;5055595;28;20208;-68
2023/02/12 04:52:52;;;;;;;42.30;16.20;;;;;;;3.42;100.00;98196.25;5055612;28;20215;-68
2023/02/12 04:55:19;;;;;;;38.07;14.67;;;;;;;3.40;100.00;98202.47;5055512;28;20209;-68
2023/02/12 04:57:45;;;;;;;43.70;16.03;;;;;;;3.41;100.00;98198.94;5056058;28;20218;-67
2023/02/12 05:00:14;;;;;;;44.77;16.83;;;;;;;3.51;100.00;98190.50;5055624;28;20207;-68
2023/02/12 05:02:41;;;;;;;36.00;14.47;;;;;;;3.46;100.00;98186.50;5056112;28;20603;-68
2023/02/12 05:05:08;;;;;;;40.53;16.03;;;;;;;3.52;100.00;98180.94;5055263;28;20207;-68
2023/02/12 05:07:35;;;;;;;46.30;15.53;;;;;;;3.47;100.00;98183.78;5054993;28;20223;-68
2023/02/12 05:10:02;;;;;;;40.47;15.30;;;;;;;3.49;100.00;98194.13;5055740;28;20203;-67
2023/02/12 05:12:28;;;;;;;42.70;16.87;;;;;;;3.43;100.00;98194.50;5056401;28;20394;-66
2023/02/12 05:14:54;;;;;;;44.87;15.83;;;;;;;3.46;100.00;98194.31;5055123;28;20222;-68
2023/02/12 05:17:21;;;;;;;44.50;15.57;;;;;;;3.47;100.00;98199.44;5055375;28;20449;-67
2023/02/12 05:19:48;;;;;;;41.67;15.30;;;;;;;3.46;100.00;98192.53;5055732;28;20231;-69
2023/02/12 05:22:16;;;;;;;43.77;16.07;;;;;;;3.53;100.00;98193.88;5056034;28;20223;-68
2023/02/12 05:24:42;;;;;;;44.77;16.87;;;;;;;3.50;100.00;98193.22;5054811;28;20203;-67
2023/02/12 05:27:09;;;;;;;37.70;15.40;;;;;;;3.42;100.00;98196.25;5055035;28;20206;-68
2023/02/12 05:29:35;;;;;;;43.10;16.17;;;;;;;3.39;100.00;98191.22;5056121;28;20211;-67
2023/02/12 05:32:02;;;;;;;45.57;16.43;;;;;;;3.40;100.00;98181.63;5054725;28;20231;-68
2023/02/12 05:34:29;;;;;;;38.77;15.37;;;;;;;3.37;100.00;98192.22;5056650;28;20738;-68
2023/02/12 05:36:55;;;;;;;45.30;17.47;;;;;;;3.37;100.00;98181.81;5055648;28;20684;-68
2023/02/12 05:39:23;;;;;;;47.07;17.47;;;;;;;3.47;100.00;98193.38;5055065;28;20612;-68
2023/02/12 05:41:50;;;;;;;50.83;17.47;;;;;;;3.40;100.00;98192.03;5054982;28;20224;-67
2023/02/12 05:44:16;;;;;;;47.97;17.37;;;;;;;3.40;100.00;98194.66;5054499;28;20588;-68
2023/02/12 05:46:43;;;;;;;43.20;16.43;;;;;;;3.44;100.00;98201.41;5054979;28;20621;-69
2023/02/12 05:49:10;;;;;;;43.37;16.43;;;;;;;3.44;100.00;98204.00;5055730;28;20200;-68
2023/02/12 05:51:37;;;;;;;49.13;17.40;;;;;;;3.43;100.00;98203.13;5055594;28;20234;-68
2023/02/12 05:54:06;;;;;;;47.67;17.97;;;;;;;3.41;100.00;98198.94;5054423;28;20211;-66
2023/02/12 05:56:36;;;;;;;42.57;16.93;;;;;;;3.47;100.00;98204.66;5055273;28;20231;-68
2023/02/12 05:59:05;;;;;;;47.17;16.80;;;;;;;3.47;100.00;98211.63;5055219;28;20250;-66
2023/02/12 06:01:34;;;;;;;42.13;17.53;;;;;;;3.46;100.00;98202.13;5055061;28;20309;-68
2023/02/12 06:04:01;;;;;;;45.77;17.37;;;;;;;3.40;100.00;98207.69;5054454;28;20215;-68
2023/02/12 06:06:29;;;;;;;46.77;16.57;;;;;;;3.42;100.00;98208.44;5055051;28;20643;-68
2023/02/12 06:08:56;;;;;;;47.97;19.43;;;;;;;3.41;100.00;98215.44;5054957;28;20799;-68
2023/02/12 06:11:23;;;;;;;49.07;18.43;;;;;;;3.37;100.00;98218.28;5054792;28;20224;-68
2023/02/12 06:13:51;;;;;;;55.20;17.77;;;;;;;3.46;100.00;98223.81;5055200;28;20555;-67
2023/02/12 06:16:20;;;;;;;49.07;16.97;;;;;;;3.47;100.00;98224.66;5055140;28;20208;-68
2023/02/12 06:18:47;;;;;;;51.20;17.87;;;;;;;3.37;100.00;98223.50;5054738;28;20333;-67
2023/02/12 06:21:13;;;;;;;47.47;17.47;;;;;;;3.41;100.00;98222.38;5055412;28;20231;-68
2023/02/12 06:23:40;;;;;;;61.73;19.10;;;;;;;3.42;100.00;98227.50;5056906;28;20207;-66
2023/02/12 06:26:07;;;;;;;56.50;20.40;;;;;;;3.37;100.00;98228.69;5058465;28;20585;-68
2023/02/12 06:28:34;;;;;;;48.33;18.20;;;;;;;3.40;100.00;98234.59;5058026;28;20215;-67
2023/02/12 06:31:01;;;;;;;45.07;17.40;;;;;;;3.45;100.00;98236.94;5059121;28;20729;-68
2023/02/12 06:33:28;;;;;;;52.23;19.13;;;;;;;3.39;100.00;98234.69;5058438;28;20204;-69
2023/02/12 06:35:54;;;;;;;48.00;18.20;;;;;;;3.39;100.00;98237.28;5057941;28;20670;-67
2023/02/12 06:38:21;;;;;;;61.33;20.83;;;;;;;3.40;100.00;98238.94;5058651;28;20507;-66
2023/02/12 06:40:48;;;;;;;52.17;19.27;;;;;;;3.42;100.00;98239.72;5057667;28;20224;-68
2023/02/12 06:43:14;;;;;;;57.57;20.40;;;;;;;3.43;100.00;98238.78;5058459;28;20204;-67
2023/02/12 06:45:40;;;;;;;51.77;19.70;;;;;;;3.42;100.00;98234.50;5058121;28;20208;-66
2023/02/12 06:48:08;;;;;;;55.17;20.77;;;;;;;3.48;100.00;98237.59;5058470;28;20235;-68
2023/02/12 06:50:35;;;;;;;53.27;19.00;;;;;;;3.42;100.00;98247.53;5058881;28;20230;-68
2023/02/12 06:53:01;;;;;;;69.40;19.30;;;;;;;3.39;100.00;98239.91;5059141;28;20203;-67
2023/02/12 06:55:28;;;;;;;54.87;19.67;;;;;;;3.34;100.00;98237.53;5057991;28;20204;-67
2023/02/12 06:57:54;;;;;;;49.87;19.37;;;;;;;3.36;100.00;98243.50;5058663;28;20239;-68
2023/02/12 07:00:22;;;;;;;51.90;20.50;;;;;;;3.43;100.00;98242.22;5058740;28;21149;-68
2023/02/12 07:02:52;;;;;;;66.07;20.70;;;;;;;3.55;100.00;98244.13;5058923;28;20203;-68
2023/02/12 07:05:20;;;;;;;61.50;20.03;;;;;;;3.56;100.00;98239.78;5057352;28;20208;-67
2023/02/12 07:07:47;;;;;;;54.90;19.93;;;;;;;3.46;100.00;98247.25;5057893;28;20216;-68
2023/02/12 07:10:13;;;;;;;52.03;18.60;;;;;;;3.51;100.00;98252.22;5058731;28;20631;-68
2023/02/12 07:12:40;;;;;;;48.40;18.33;;;;;;;3.41;100.00;98238.88;5058348;28;20224;-68
2023/02/12 07:15:06;;;;;;;55.17;19.40;;;;;;;3.49;100.00;98238.44;5057908;28;20205;-67
2023/02/12 07:17:33;;;;;;;52.70;19.03;;;;;;;3.54;100.00;98246.84;5055436;28;20206;-67
2023/02/12 07:19:59;;;;;;;70.10;20.70;;;;;;;3.56;100.00;98239.78;5053977;28;20219;-67
2023/02/12 07:22:27;;;;;;;66.63;21.73;;;;;;;3.64;100.00;98228.00;5057338;28;20220;-66
2023/02/12 07:24:54;;;;;;;61.43;21.20;;;;;;;3.62;100.00;98234.25;5057399;28;20204;-68
2023/02/12 07:27:20;;;;;;;64.47;21.20;;;;;;;3.67;100.00;98228.66;5057196;28;20211;-67
2023/02/12 07:29:46;;;;;;;65.60;19.77;;;;;;;3.72;100.00;98231.84;5056662;28;20205;-67
2023/02/12 07:32:13;;;;;;;67.67;22.20;;;;;;;3.77;100.00;98227.22;5055902;28;20243;-69
2023/02/12 07:34:39;;;;;;;61.63;21.60;;;;;;;3.86;100.00;98229.28;5055633;28;20290;-68
2023/02/12 07:37:06;;;;;;;64.33;20.57;;;;;;;3.84;100.00;98225.09;5056312;28;20219;-68
2023/02/12 07:39:34;;;;;;;53.10;20.20;;;;;;;3.95;100.00;98226.16;5057455;28;20643;-67
2023/02/12 07:42:00;;;;;;;61.23;21.20;;;;;;;3.97;100.00;98216.47;5057757;28;20216;-68
2023/02/12 07:44:27;;;;;;;68.33;22.90;;;;;;;4.04;100.00;98223.00;5056045;28;20251;-68
2023/02/12 07:46:54;;;;;;;71.03;22.93;;;;;;;4.15;100.00;98225.84;5057399;28;20227;-68
2023/02/12 07:49:21;;;;;;;84.23;25.70;;;;;;;4.25;100.00;98221.72;5057348;28;20195;-68
2023/02/12 07:51:49;;;;;;;78.73;25.13;;;;;;;4.28;100.00;98227.63;5057600;28;20227;-67
2023/02/12 07:54:16;;;;;;;76.27;25.37;;;;;;;4.37;100.00;98223.63;5057016;28;20208;-68
2023/02/12 07:56:45;;;;;;;74.40;25.50;;;;;;;4.41;100.00;98222.50;5057443;28;20346;-69
2023/02/12 07:59:14;;;;;;;64.87;23.30;;;;;;;4.38;100.00;98226.16;5054716;28;20224;-68
2023/02/12 08:01:43;;;;;;;75.47;23.90;;;;;;;4.41;100.00;98223.34;5056759;28;20224;-68
2023/02/12 08:04:11;;;;;;;64.53;23.80;;;;;;;4.46;100.00;98228.31;5056538;28;20197;-69
2023/02/12 08:06:41;;;;;;;64.13;23.80;;;;;;;4.53;100.00;98224.38;5056898;28;20644;-69
2023/02/12 08:09:10;;;;;;;69.20;24.17;;;;;;;4.52;100.00;98223.53;5057298;28;20298;-68
2023/02/12 08:11:38;;;;;;;67.10;23.43;;;;;;;4.43;100.00;98220.63;5057290;28;20221;-68
2023/02/12 08:14:06;;;;;;;68.60;24.30;;;;;;;4.57;100.00;98224.13;5056278;28;20703;-68
2023/02/12 08:16:36;;;;;;;60.87;22.53;;;;;;;4.78;100.00;98227.19;5055035;28;20208;-68
2023/02/12 08:19:02;;;;;;;73.80;24.33;;;;;;;4.73;100.00;98232.69;5056926;28;20207;-68
2023/02/12 08:21:29;;;;;;;75.10;24.00;;;;;;;4.88;100.00;98229.97;5057040;28;20594;-68
2023/02/12 08:23:57;;;;;;;79.47;24.90;;;;;;;4.95;100.00;98225.19;5056424;28;20208;-69
2023/02/12 08:26:27;;;;;;;44.40;14.33;;;;;;;5.93;100.00;98213.56;5057057;28;20204;-68
2023/02/12 08:28:56;;;;;;;63.37;20.13;;;;;;;7.26;100.00;98212.88;5056752;28;20565;-68
2023/02/12 08:31:25;;;;;;;96.07;28.00;;;;;;;6.84;100.00;98204.59;5055066;28;20962;-69
2023/02/12 08:33:54;;;;;;;90.63;28.13;;;;;;;6.59;100.00;98222.09;5054784;28;20204;-68
2023/02/12 08:36:22;;;;;;;73.60;25.13;;;;;;;6.18;100.00;98230.13;5054186;28;20212;-68
2023/02/12 08:38:49;;;;;;;88.67;29.67;;;;;;;6.04;100.00;98225.94;5055603;28;20203;-67
2023/02/12 08:41:18;;;;;;;82.87;27.67;;;;;;;5.94;100.00;98219.63;5054154;28;20236;-69
2023/02/12 08:43:44;;;;;;;81.33;27.87;;;;;;;5.94;100.00;98224.84;5055614;28;20259;-68
2023/02/12 08:46:14;;;;;;;79.63;25.07;;;;;;;5.93;100.00;98220.56;5056019;28;20246;-68
2023/02/12 08:48:42;;;;;;;66.67;22.00;;;;;;;5.97;100.00;98217.66;5056949;28;20203;-67
2023/02/12 08:51:11;;;;;;;77.43;25.70;;;;;;;6.03;100.00;98214.59;5055186;28;20227;-67
2023/02/12 08:53:39;;;;;;;77.20;29.70;;;;;;;6.03;100.00;98208.53;5055694;28;20585;-68
2023/02/12 08:56:07;;;;;;;69.03;22.67;;;;;;;5.78;100.00;98213.69;5054586;28;20429;-68
2023/02/12 08:58:34;;;;;;;67.47;22.63;;;;;;;5.86;100.00;98211.44;5055928;28;20211;-68
2023/02/12 09:01:01;;;;;;;73.07;24.47;;;;;;;5.88;100.00;98218.25;5056019;28;20224;-68
2023/02/12 09:03:27;;;;;;;70.10;23.13;;;;;;;6.01;100.00;98213.03;5056656;28;20204;-68
2023/02/12 09:05:56;;;;;;;60.17;22.67;;;;;;;6.04;100.00;98218.09;5056186;28;20201;-68
2023/02/12 09:08:23;;;;;;;70.03;22.07;;;;;;;5.96;100.00;98222.97;5055108;28;20212;-69
2023/02/12 09:10:49;;;;;;;65.00;21.43;;;;;;;5.87;100.00;98219.19;5056132;28;20217;-68
2023/02/12 09:13:15;;;;;;;67.43;22.70;;;;;;;5.94;100.00;98225.69;5056749;28;20197;-67
2023/02/12 09:15:43;;;;;;;71.50;22.13;;;;;;;6.14;100.00;98226.03;5056003;28;20215;-68
2023/02/12 09:18:10;;;;;;;62.00;19.77;;;;;;;6.06;100.00;98219.66;5056363;28;20204;-69
2023/02/12 09:20:38;;;;;;;60.47;20.27;;;;;;;6.01;100.00;98221.75;5054818;28;20224;-68
2023/02/12 09:23:07;;;;;;;65.23;20.60;;;;;;;6.05;100.00;98223.22;5055686;28;20246;-69
2023/02/12 09:25:34;;;;;;;60.47;19.53;;;;;;;5.87;100.00;98220.94;5054076;28;20204;-68
2023/02/12 09:28:00;;;;;;;51.60;18.03;;;;;;;5.76;100.00;98226.06;5056577;28;20291;-68
2023/02/12 09:30:27;;;;;;;59.67;21.57;;;;;;;5.61;100.00;98227.88;5055490;28;20787;-68
2023/02/12 09:32:54;;;;;;;64.90;22.40;;;;;;;5.47;100.00;98229.66;5056186;28;21179;-67
2023/02/12 09:35:21;;;;;;;58.10;20.00;;;;;;;5.42;100.00;98231.72;5056090;28;20201;-69
2023/02/12 09:37:47;;;;;;;61.47;21.63;;;;;;;5.46;100.00;98239.31;5056034;28;20208;-68
2023/02/12 09:40:21;;;;;;;65.73;22.73;;;;;;;5.52;100.00;98246.75;5055968;28;20221;-69
2023/02/12 09:43:06;;;;;;;62.70;20.33;;;;;;;5.61;100.00;98237.47;5056305;28;20235;-68
2023/02/12 09:45:37;;;;;;;55.27;19.53;;;;;;;5.60;100.00;98243.63;5055808;28;20207;-67
2023/02/12 09:48:18;;;;;;;67.40;22.80;;;;;;;5.83;100.00;98238.66;5055088;28;20208;-68
2023/02/12 09:50:52;;;;;;;66.47;21.33;;;;;;;5.74;100.00;98243.59;5055787;28;20228;-68
2023/02/12 09:53:21;;;;;;;59.13;18.97;;;;;;;5.78;100.00;98239.84;5056595;28;20831;-67
2023/02/12 09:55:49;;;;;;;64.13;19.47;;;;;;;5.84;100.00;98242.94;5055533;28;20197;-68
2023/02/12 09:58:21;;;;;;;69.13;20.30;;;;;;;5.92;100.00;98245.91;5057178;28;20963;-68
2023/02/12 10:00:47;;;;;;;60.77;19.23;;;;;;;5.87;100.00;98239.25;5058591;28;20231;-68
2023/02/12 10:03:17;;;;;;;54.73;17.90;;;;;;;6.02;100.00;98243.50;5058081;28;20648;-69
2023/02/12 10:05:49;;;;;;;51.30;15.20;;;;;;;6.09;100.00;98243.81;5058220;28;20200;-68
2023/02/12 10:08:46;;;;;;;59.23;17.33;;;;;;;6.19;100.00;98246.69;5057946;28;20264;-68
2023/02/12 10:11:41;;;;;;;47.33;15.17;;;;;;;6.08;100.00;98242.16;5059291;28;20212;-68
2023/02/12 10:14:36;;;;;;;48.60;15.73;;;;;;;6.24;100.00;98236.75;5058819;28;20208;-68
2023/02/12 10:17:13;;;;;;;52.13;15.53;;;;;;;6.34;100.00;98238.66;5059520;28;20204;-69
2023/02/12 10:20:06;;;;;;;48.83;14.57;;;;;;;6.22;100.00;98230.78;5058927;28;20204;-68
2023/02/12 10:22:43;;;;;;;41.27;13.23;;;;;;;6.29;100.00;98238.13;5059376;28;20228;-69
2023/02/12 10:25:22;;;;;;;43.90;14.67;;;;;;;6.17;100.00;98236.31;5057674;28;20208;-69
2023/02/12 10:27:52;;;;;;;49.60;14.33;;;;;;;6.36;100.00;98238.53;5058671;28;20204;-68
2023/02/12 10:30:22;;;;;;;45.63;14.87;;;;;;;6.35;100.00;98240.34;5059315;28;20197;-69
2023/02/12 10:32:52;;;;;;;42.43;14.33;;;;;;;6.44;100.00;98241.47;5059226;28;20228;-69
2023/02/12 10:35:23;;;;;;;52.80;15.37;;;;;;;6.42;100.00;98244.19;5059013;28;20197;-69
2023/02/12 10:37:55;;;;;;;51.43;15.63;;;;;;;6.36;100.00;98233.31;5059074;28;20692;-68
2023/02/12 10:40:26;;;;;;;50.83;17.10;;;;;;;6.27;100.00;98236.53;5058991;28;20231;-69
2023/02/12 10:42:56;;;;;;;49.70;15.87;;;;;;;6.45;100.00;98232.69;5058939;28;20258;-69
2023/02/12 10:45:30;;;;;;;45.63;15.90;;;;;;;6.55;100.00;98234.56;5057972;28;20232;-69
2023/02/12 10:48:07;;;;;;;46.67;15.10;;;;;;;6.57;100.00;98234.47;5059257;28;20845;-69
2023/02/12 10:50:42;;;;;;;42.37;15.57;;;;;;;6.64;100.00;98228.69;5057966;28;20196;-68
2023/02/12 10:53:16;;;;;;;56.53;17.83;;;;;;;6.69;100.00;98231.84;5057934;28;20231;-69
2023/02/12 10:55:43;;;;;;;58.30;18.03;;;;;;;6.46;100.00;98229.94;5058679;28;20306;-69
2023/02/12 10:58:20;;;;;;;52.47;18.13;;;;;;;6.64;100.00;98225.25;5058549;28;20205;-67
2023/02/12 11:00:56;;;;;;;55.70;17.30;;;;;;;6.56;100.00;98215.28;5056892;28;20228;-68
2023/02/12 11:03:27;;;;;;;47.80;15.50;;;;;;;6.52;100.00;98213.84;5054881;28;20215;-67
2023/02/12 11:05:53;;;;;;;48.10;15.70;;;;;;;6.34;100.00;98217.69;5057757;28;20204;-69
2023/02/12 11:08:32;;;;;;;52.93;17.83;;;;;;;6.47;100.00;98215.09;5056434;28;20680;-68
2023/02/12 11:11:09;;;;;;;54.73;16.77;;;;;;;6.66;100.00;98213.72;5058176;28;20227;-68
2023/02/12 11:13:40;;;;;;;48.03;16.23;;;;;;;6.60;100.00;98213.31;5057898;28;20686;-69
2023/02/12 11:16:07;;;;;;;54.13;16.37;;;;;;;6.53;100.00;98220.75;5058245;28;20203;-69
2023/02/12 11:18:36;;;;;;;56.70;17.90;;;;;;;6.58;100.00;98213.44;5058661;28;20202;-68
2023/02/12 11:21:04;;;;;;;55.47;17.27;;;;;;;6.69;100.00;98205.66;5057972;28;20278;-69
2023/02/12 11:23:33;;;;;;;47.53;14.00;;;;;;;6.63;100.00;98208.69;5058047;28;20203;-69
2023/02/12 11:26:01;;;;;;;54.00;15.17;;;;;;;6.65;100.00;98212.03;5058131;28;20204;-69
2023/02/12 11:28:29;;;;;;;47.83;15.07;;;;;;;6.65;100.00;98205.00;5058260;28;21299;-68
2023/02/12 11:30:59;;;;;;;50.93;15.03;;;;;;;6.66;100.00;98211.09;5057858;28;20229;-68
2023/02/12 11:33:29;;;;;;;41.13;13.93;;;;;;;6.77;100.00;98203.31;5057063;28;20680;-69